createdAt,value
2024-03-12T00:01:24.262Z,34.50
2024-03-12T00:03:56.674Z,39.60
2024-03-12T00:06:27.387Z,42.17
2024-03-12T00:08:57.335Z,38.00
2024-03-12T00:11:28.356Z,36.47
2024-03-12T00:13:58.493Z,37.27
2024-03-12T00:16:30.456Z,33.10
2024-03-12T00:19:02.224Z,33.53
2024-03-12T00:21:32.039Z,38.13
2024-03-12T00:24:01.734Z,33.13
2024-03-12T00:26:34.298Z,37.27
2024-03-12T00:29:04.116Z,33.50
2024-03-12T00:31:34.237Z,35.10
2024-03-12T00:34:04.054Z,35.60
2024-03-12T00:36:34.008Z,32.13
2024-03-12T00:39:04.533Z,31.57
2024-03-12T00:41:36.972Z,31.03
2024-03-12T00:44:07.556Z,31.27
2024-03-12T00:46:37.740Z,30.17
2024-03-12T00:49:08.590Z,30.33
2024-03-12T00:51:38.615Z,27.60
2024-03-12T00:54:08.786Z,29.90
2024-03-12T00:56:40.136Z,30.63
2024-03-12T00:59:09.845Z,30.37
2024-03-12T01:01:39.666Z,29.00
2024-03-12T01:04:10.833Z,32.03
2024-03-12T01:06:40.743Z,26.77
2024-03-12T01:09:10.338Z,27.53
2024-03-12T01:11:42.708Z,26.40
2024-03-12T01:14:14.184Z,26.20
2024-03-12T01:16:44.056Z,25.13
2024-03-12T01:19:14.076Z,27.33
2024-03-12T01:21:43.725Z,27.70
2024-03-12T01:24:14.366Z,25.93
2024-03-12T01:26:45.967Z,27.40
2024-03-12T01:29:15.787Z,26.07
2024-03-12T01:31:45.796Z,23.77
2024-03-12T01:34:17.755Z,25.07
2024-03-12T01:36:48.866Z,26.03
2024-03-12T01:39:26.671Z,27.83
2024-03-12T01:41:58.467Z,25.17
2024-03-12T01:44:28.475Z,22.87
2024-03-12T01:46:58.202Z,23.20
2024-03-12T01:49:27.999Z,23.03
2024-03-12T01:51:57.892Z,28.10
2024-03-12T01:54:27.549Z,23.50
2024-03-12T01:56:58.979Z,23.33
2024-03-12T01:59:28.780Z,24.37
2024-03-12T02:02:02.684Z,22.57
2024-03-12T02:04:32.499Z,24.27
2024-03-12T02:07:02.278Z,21.13
2024-03-12T02:09:32.277Z,24.23
2024-03-12T02:12:03.677Z,24.27
2024-03-12T02:14:33.589Z,24.10
2024-03-12T02:17:06.918Z,22.20
2024-03-12T02:19:36.799Z,24.90
2024-03-12T02:22:06.812Z,22.53
2024-03-12T02:24:38.174Z,25.27
2024-03-12T02:27:08.381Z,26.47
2024-03-12T02:29:38.092Z,23.37
2024-03-12T02:32:08.726Z,23.37
2024-03-12T02:34:38.964Z,25.50
2024-03-12T02:37:09.200Z,29.30
2024-03-12T02:39:41.171Z,26.00
2024-03-12T02:42:11.358Z,26.90
2024-03-12T02:44:41.060Z,26.73
2024-03-12T02:47:11.070Z,29.37
2024-03-12T02:49:41.299Z,25.27
2024-03-12T02:52:13.001Z,26.20
2024-03-12T02:54:44.634Z,26.80
2024-03-12T02:57:14.841Z,28.63
2024-03-12T02:59:45.279Z,29.70
2024-03-12T03:02:15.580Z,27.87
2024-03-12T03:04:45.899Z,32.80
2024-03-12T03:07:18.499Z,31.73
2024-03-12T03:09:50.058Z,29.20
2024-03-12T03:12:20.061Z,32.90
2024-03-12T03:14:49.752Z,29.63
2024-03-12T03:17:19.368Z,27.73
2024-03-12T03:19:50.412Z,28.57
2024-03-12T03:22:21.153Z,26.87
2024-03-12T03:24:53.023Z,27.07
2024-03-12T03:27:23.030Z,26.47
2024-03-12T03:29:53.027Z,27.70
2024-03-12T03:32:25.206Z,25.77
2024-03-12T03:34:55.635Z,27.00
2024-03-12T03:37:28.413Z,29.27
2024-03-12T03:39:59.366Z,36.50
2024-03-12T03:42:29.494Z,40.43
2024-03-12T03:44:59.279Z,38.87
2024-03-12T03:47:35.872Z,48.33
2024-03-12T03:50:07.002Z,50.13
2024-03-12T03:52:38.551Z,48.27
2024-03-12T03:55:11.105Z,46.27
2024-03-12T03:57:41.355Z,67.83
2024-03-12T04:00:24.900Z,50.70
2024-03-12T04:02:54.896Z,45.67
2024-03-12T04:05:25.106Z,42.60
2024-03-12T04:07:55.877Z,40.73
2024-03-12T04:10:27.145Z,41.87
2024-03-12T04:12:57.786Z,44.97
2024-03-12T04:15:31.747Z,43.70
2024-03-12T04:18:02.133Z,41.43
2024-03-12T04:20:32.679Z,45.73
2024-03-12T04:23:03.327Z,40.97
2024-03-12T04:25:34.868Z,37.73
2024-03-12T04:28:04.702Z,40.73
2024-03-12T04:30:36.965Z,40.00
2024-03-12T04:33:07.841Z,41.97
2024-03-12T04:35:37.806Z,45.80
2024-03-12T04:38:09.730Z,39.93
2024-03-12T04:40:41.526Z,45.53
2024-03-12T04:43:11.524Z,45.83
2024-03-12T04:45:42.616Z,44.90
2024-03-12T04:48:13.353Z,39.73
2024-03-12T04:50:43.226Z,44.50
2024-03-12T04:53:13.039Z,42.80
2024-03-12T04:55:46.230Z,36.80
2024-03-12T04:58:16.171Z,37.53
2024-03-12T05:00:46.021Z,36.50
2024-03-12T05:03:16.009Z,34.80
2024-03-12T05:05:45.793Z,35.47
2024-03-12T05:08:15.592Z,34.73
2024-03-12T05:10:46.888Z,31.80
2024-03-12T05:13:16.783Z,34.93
2024-03-12T05:15:46.798Z,34.23
2024-03-12T05:18:16.483Z,33.73
2024-03-12T05:20:46.512Z,35.37
2024-03-12T05:23:16.820Z,33.17
2024-03-12T05:25:48.273Z,34.30
2024-03-12T05:28:21.078Z,34.27
2024-03-12T05:30:51.635Z,34.73
2024-03-12T05:33:29.731Z,37.43
2024-03-12T05:35:59.603Z,33.60
2024-03-12T05:38:46.408Z,34.97
2024-03-12T05:41:27.327Z,37.37
2024-03-12T05:44:16.748Z,37.53
2024-03-12T05:47:05.925Z,34.83
2024-03-12T05:49:35.934Z,36.17
2024-03-12T05:52:06.129Z,35.57
2024-03-12T05:54:35.953Z,35.50
2024-03-12T05:57:07.731Z,33.83
2024-03-12T05:59:37.436Z,31.40
2024-03-12T06:02:07.417Z,39.80
2024-03-12T06:04:37.159Z,33.57
2024-03-12T06:07:07.382Z,34.97
2024-03-12T06:09:37.107Z,31.47
2024-03-12T06:12:08.648Z,37.27
2024-03-12T06:14:38.951Z,39.87
2024-03-12T06:17:09.110Z,39.30
2024-03-12T06:19:38.929Z,38.57
2024-03-12T06:22:10.097Z,35.47
2024-03-12T06:24:41.224Z,35.20
2024-03-12T06:27:12.945Z,33.17
2024-03-12T06:29:43.779Z,39.97
2024-03-12T06:32:13.396Z,38.63
2024-03-12T06:34:47.349Z,38.07
2024-03-12T06:37:20.596Z,38.20
2024-03-12T06:39:54.517Z,39.33
2024-03-12T06:42:31.331Z,34.90
2024-03-12T06:45:02.151Z,38.07
2024-03-12T06:47:38.584Z,35.73
2024-03-12T06:50:10.646Z,41.67
2024-03-12T06:52:40.347Z,33.77
2024-03-12T06:55:17.128Z,33.47
2024-03-12T06:57:54.124Z,30.27
2024-03-12T07:00:34.710Z,28.33
2024-03-12T07:03:06.350Z,25.97
2024-03-12T07:05:37.969Z,24.57
2024-03-12T07:08:08.966Z,17.53
2024-03-12T07:10:42.483Z,16.97
2024-03-12T07:13:14.435Z,15.03
2024-03-12T07:15:46.461Z,16.10
2024-03-12T07:18:17.609Z,16.43
2024-03-12T07:20:48.199Z,16.50
2024-03-12T07:23:19.347Z,20.13
2024-03-12T07:25:49.170Z,19.97
2024-03-12T07:28:24.352Z,23.13
2024-03-12T07:30:55.975Z,25.10
2024-03-12T07:33:26.198Z,20.33
2024-03-12T07:36:00.613Z,18.77
2024-03-12T07:38:30.611Z,18.10
2024-03-12T07:41:00.217Z,18.57
2024-03-12T07:43:31.714Z,19.20
2024-03-12T07:46:02.135Z,19.10
2024-03-12T07:48:32.474Z,19.13
2024-03-12T07:51:03.395Z,23.97
2024-03-12T07:53:41.482Z,22.20
2024-03-12T07:56:13.228Z,21.17
2024-03-12T07:58:47.977Z,26.83
2024-03-12T08:05:35.132Z,26.73
2024-03-12T08:08:08.176Z,25.80
2024-03-12T08:10:39.840Z,25.20
2024-03-12T08:13:10.441Z,24.20
2024-03-12T08:15:42.368Z,23.03
2024-03-12T08:18:17.705Z,21.90
2024-03-12T08:20:51.674Z,22.73
2024-03-12T08:23:22.417Z,24.33
2024-03-12T08:25:56.627Z,25.07
2024-03-12T08:28:32.635Z,26.57
2024-03-12T08:31:11.029Z,26.13
2024-03-12T08:33:45.648Z,28.10
2024-03-12T08:36:17.106Z,33.07
2024-03-12T08:38:47.802Z,36.30
2024-03-12T08:41:18.009Z,38.97
2024-03-12T08:43:48.024Z,38.47
2024-03-12T08:46:20.743Z,40.37
2024-03-12T08:48:50.783Z,43.43
2024-03-12T08:51:20.625Z,40.80
2024-03-12T08:53:50.462Z,41.43
2024-03-12T08:56:21.197Z,40.23
2024-03-12T08:58:51.521Z,35.20
2024-03-12T09:01:23.058Z,33.67
2024-03-12T09:03:54.434Z,30.67
2024-03-12T09:06:24.870Z,29.43
2024-03-12T09:08:55.278Z,33.77
2024-03-12T09:11:25.029Z,32.47
2024-03-12T09:13:56.364Z,29.70
2024-03-12T09:16:28.633Z,30.90
2024-03-12T09:18:58.425Z,29.83
2024-03-12T09:21:29.668Z,32.20
2024-03-12T09:24:02.263Z,32.93
2024-03-12T09:26:33.594Z,28.80
2024-03-12T09:29:03.611Z,26.87
2024-03-12T09:31:36.112Z,25.73
2024-03-12T09:34:06.482Z,30.57
2024-03-12T09:36:36.405Z,28.97
2024-03-12T09:39:12.598Z,30.13
2024-03-12T09:41:55.998Z,29.03
2024-03-12T09:44:27.560Z,27.47
2024-03-12T09:47:00.329Z,25.90
2024-03-12T09:49:31.412Z,27.60
2024-03-12T09:52:01.329Z,29.88
2024-03-12T09:54:31.968Z,27.48
2024-03-12T09:57:03.987Z,25.55
2024-03-12T09:59:34.746Z,27.60
2024-03-12T10:02:07.299Z,25.25
2024-03-12T10:04:37.560Z,27.15
2024-03-12T10:07:07.610Z,32.63
2024-03-12T10:09:45.904Z,26.13
2024-03-12T10:16:30.678Z,24.85
2024-03-12T10:19:13.310Z,24.17
2024-03-12T10:21:43.588Z,23.88
2024-03-12T10:24:19.147Z,24.55
2024-03-12T10:26:49.837Z,26.65
2024-03-12T10:29:21.217Z,24.20
2024-03-12T10:31:52.547Z,25.30
2024-03-12T10:34:25.133Z,24.63
2024-03-12T10:36:54.910Z,26.02
2024-03-12T10:39:34.386Z,25.63
2024-03-12T10:42:05.604Z,24.20
2024-03-12T10:44:38.409Z,22.42
2024-03-12T10:47:09.026Z,23.23
2024-03-12T10:49:41.090Z,23.70
2024-03-12T10:52:11.890Z,26.80
2024-03-12T10:54:42.454Z,22.65
2024-03-12T10:57:15.660Z,20.88
2024-03-12T10:59:46.589Z,27.00
2024-03-12T11:02:16.640Z,22.27
2024-03-12T11:04:50.008Z,24.17
2024-03-12T11:07:22.982Z,23.77
2024-03-12T11:09:55.847Z,20.33
2024-03-12T11:12:26.953Z,22.85
2024-03-12T11:14:57.950Z,19.90
2024-03-12T11:17:29.232Z,21.08
2024-03-12T11:20:03.747Z,24.02
2024-03-12T11:22:34.040Z,21.75
2024-03-12T11:25:06.246Z,20.98
2024-03-12T11:27:38.419Z,21.00
2024-03-12T11:30:16.185Z,19.33
2024-03-12T11:32:50.371Z,18.83
2024-03-12T11:35:36.294Z,20.25
2024-03-12T11:38:12.058Z,20.65
2024-03-12T11:40:52.851Z,23.50
2024-03-12T11:43:42.697Z,21.85
2024-03-12T11:46:13.973Z,20.73
2024-03-12T11:48:47.040Z,23.60
2024-03-12T11:51:20.209Z,20.88
2024-03-12T11:53:50.954Z,24.88
2024-03-12T11:56:23.405Z,26.48
2024-03-12T11:59:00.095Z,21.10
2024-03-12T12:01:36.337Z,22.60
2024-03-12T12:04:09.224Z,22.10
2024-03-12T12:06:41.330Z,20.48
2024-03-12T12:09:12.567Z,31.20
2024-03-12T12:11:42.886Z,20.25
2024-03-12T12:14:13.415Z,21.75
2024-03-12T12:16:44.138Z,21.90
2024-03-12T12:19:21.669Z,23.02
2024-03-12T12:21:58.409Z,24.52
2024-03-12T12:24:28.362Z,23.33
2024-03-12T12:27:00.907Z,23.75
2024-03-12T12:29:35.412Z,23.55
2024-03-12T12:32:05.731Z,21.02
2024-03-12T12:34:37.894Z,30.02
2024-03-12T12:37:13.734Z,20.17
2024-03-12T12:42:17.472Z,19.98
2024-03-12T12:44:51.849Z,19.48
2024-03-12T12:47:24.066Z,21.65
2024-03-12T12:49:57.049Z,21.15
2024-03-12T12:52:29.378Z,19.83
2024-03-12T12:55:03.166Z,18.20
2024-03-12T12:57:36.517Z,19.85
2024-03-12T13:00:16.919Z,17.08
2024-03-12T13:02:48.096Z,18.08
2024-03-12T13:05:22.647Z,18.02
2024-03-12T13:07:54.716Z,18.98
2024-03-12T13:10:28.533Z,17.08
2024-03-12T13:12:58.465Z,17.85
2024-03-12T13:15:29.770Z,17.35
2024-03-12T13:18:00.132Z,20.45
2024-03-12T13:20:29.810Z,18.92
2024-03-12T13:23:00.949Z,21.27
2024-03-12T13:25:30.927Z,20.58
2024-03-12T13:28:01.047Z,18.92
2024-03-12T13:30:30.980Z,18.90
2024-03-12T13:33:00.843Z,19.77
2024-03-12T13:35:30.831Z,19.20
2024-03-12T13:38:02.104Z,19.20
2024-03-12T13:40:32.099Z,18.38
2024-03-12T13:43:02.189Z,20.40
2024-03-12T13:45:32.167Z,18.40
2024-03-12T13:48:02.171Z,18.38
2024-03-12T13:50:31.856Z,21.67
2024-03-12T13:53:03.920Z,19.73
2024-03-12T13:55:36.584Z,14.93
2024-03-12T13:58:09.081Z,17.15
2024-03-12T14:00:41.433Z,12.75
2024-03-12T14:03:13.004Z,14.80
2024-03-12T14:05:47.713Z,14.70
2024-03-12T14:08:20.210Z,12.00
2024-03-12T14:10:51.409Z,13.68
2024-03-12T14:13:23.210Z,13.20
2024-03-12T14:16:06.257Z,12.52
2024-03-12T14:18:39.399Z,13.35
2024-03-12T14:21:09.542Z,12.27
2024-03-12T14:23:41.414Z,11.45
2024-03-12T14:26:12.724Z,14.60
2024-03-12T14:28:47.203Z,14.57
2024-03-12T14:31:17.990Z,13.85
2024-03-12T14:33:49.892Z,14.77
2024-03-12T14:36:24.888Z,15.57
2024-03-12T14:38:59.625Z,14.85
2024-03-12T14:41:31.897Z,17.80
2024-03-12T14:44:02.217Z,18.40
2024-03-12T14:46:33.068Z,21.30
2024-03-12T14:49:03.064Z,17.88
2024-03-12T14:51:34.745Z,18.63
2024-03-12T14:54:06.472Z,19.17
2024-03-12T14:56:39.672Z,17.42
2024-03-12T14:59:10.819Z,23.05
2024-03-12T15:01:43.625Z,17.38
2024-03-12T15:04:14.549Z,21.02
2024-03-12T15:06:44.887Z,20.40
2024-03-12T15:09:16.312Z,21.15
2024-03-12T15:11:48.670Z,21.00
2024-03-12T15:14:19.094Z,19.02
2024-03-12T15:16:49.007Z,20.83
2024-03-12T15:19:20.753Z,19.90
2024-03-12T15:21:54.120Z,20.23
2024-03-12T15:24:27.063Z,19.52
2024-03-12T15:26:59.146Z,20.63
2024-03-12T15:29:31.186Z,16.73
2024-03-12T15:32:01.700Z,16.40
2024-03-12T15:34:31.519Z,20.13
2024-03-12T15:37:04.171Z,17.67
2024-03-12T15:39:36.507Z,20.25
2024-03-12T15:42:08.540Z,18.98
2024-03-12T15:44:40.512Z,18.17
2024-03-12T15:47:10.629Z,21.25
2024-03-12T15:49:41.852Z,18.60
2024-03-12T15:52:12.279Z,20.20
2024-03-12T15:54:45.366Z,20.55
2024-03-12T15:57:18.896Z,17.58
2024-03-12T15:59:49.925Z,17.45
2024-03-12T16:02:23.735Z,22.73
2024-03-12T16:04:58.242Z,24.63
2024-03-12T16:07:31.257Z,26.80
2024-03-12T16:10:10.044Z,26.60
2024-03-12T16:12:43.022Z,28.17
2024-03-12T16:15:21.768Z,28.40
2024-03-12T16:17:53.909Z,31.15
2024-03-12T16:20:29.002Z,32.50
2024-03-12T16:22:59.186Z,32.83
2024-03-12T16:25:39.759Z,31.73
2024-03-12T16:28:20.862Z,35.67
2024-03-12T16:30:56.810Z,33.40
2024-03-12T16:33:31.199Z,33.22
2024-03-12T16:36:01.128Z,32.58
2024-03-12T16:38:33.891Z,40.38
2024-03-12T16:41:10.303Z,36.42
2024-03-12T16:43:45.409Z,39.17
2024-03-12T16:46:23.830Z,36.95
2024-03-12T16:48:57.118Z,38.03
2024-03-12T16:51:27.933Z,40.40
2024-03-12T16:54:00.531Z,40.80
2024-03-12T16:56:34.141Z,42.72
2024-03-12T16:59:06.092Z,42.00
2024-03-12T17:01:39.484Z,41.55
2024-03-12T17:04:18.398Z,43.22
2024-03-12T17:08:49.559Z,42.97
2024-03-12T17:11:34.955Z,42.05
2024-03-12T17:14:22.948Z,44.33
2024-03-12T17:17:07.623Z,44.45
2024-03-12T17:19:41.648Z,46.83
2024-03-12T17:22:17.733Z,42.30
2024-03-12T17:24:53.465Z,42.17
2024-03-12T17:27:33.508Z,47.38
2024-03-12T17:30:04.048Z,44.22
2024-03-12T17:32:34.474Z,46.85
2024-03-12T17:35:07.745Z,57.72
2024-03-12T17:37:41.766Z,48.17
2024-03-12T17:40:19.623Z,45.80
2024-03-12T17:42:52.205Z,46.92
2024-03-12T17:45:25.334Z,46.75
2024-03-12T17:48:02.985Z,49.33
2024-03-12T17:50:33.549Z,39.88
2024-03-12T17:53:08.048Z,49.28
2024-03-12T17:55:48.331Z,60.30
2024-03-12T17:58:21.924Z,53.92
2024-03-12T18:00:53.764Z,47.78
2024-03-12T18:03:27.513Z,53.92
2024-03-12T18:06:05.090Z,63.53
2024-03-12T18:08:40.940Z,68.50
2024-03-12T18:11:14.665Z,63.90
2024-03-12T18:13:48.057Z,86.00
2024-03-12T18:16:18.451Z,72.35
2024-03-12T18:18:53.540Z,68.43
2024-03-12T18:21:25.064Z,72.80
2024-03-12T18:24:04.397Z,69.28
2024-03-12T18:26:43.109Z,59.40
2024-03-12T18:29:17.642Z,52.25
2024-03-12T18:31:50.431Z,44.85
2024-03-12T18:34:20.819Z,40.20
2024-03-12T18:36:55.358Z,38.38
2024-03-12T18:39:26.201Z,41.83
2024-03-12T18:41:59.900Z,40.47
2024-03-12T18:44:31.575Z,36.80
2024-03-12T18:47:04.536Z,39.70
2024-03-12T18:49:35.889Z,43.13
2024-03-12T18:52:10.200Z,39.73
2024-03-12T18:54:40.488Z,40.90
2024-03-12T18:57:17.492Z,44.27
2024-03-12T18:59:48.244Z,39.92
2024-03-12T19:02:26.050Z,38.95
2024-03-12T19:05:00.887Z,44.38
2024-03-12T19:07:31.809Z,44.35
2024-03-12T19:10:01.822Z,44.67
2024-03-12T19:12:36.069Z,43.33
2024-03-12T19:15:09.456Z,37.70
2024-03-12T19:17:45.619Z,43.30
2024-03-12T19:20:17.469Z,44.67
2024-03-12T19:22:51.167Z,40.90
2024-03-12T19:25:27.609Z,42.90
2024-03-12T19:28:04.940Z,40.00
2024-03-12T19:30:38.716Z,43.83
2024-03-12T19:33:13.402Z,43.30
2024-03-12T19:35:52.004Z,48.53
2024-03-12T19:38:27.109Z,43.07
2024-03-12T19:40:59.489Z,48.80
2024-03-12T19:43:38.251Z,44.20
2024-03-12T19:46:17.817Z,48.03
2024-03-12T19:48:52.940Z,48.50
2024-03-12T19:51:23.810Z,42.23
2024-03-12T19:54:10.397Z,42.57
2024-03-12T19:56:42.731Z,48.07
2024-03-12T19:59:21.447Z,72.80
2024-03-12T20:01:54.168Z,53.63
2024-03-12T20:04:29.837Z,48.10
2024-03-12T20:07:03.172Z,56.43
2024-03-12T20:09:41.252Z,85.97
2024-03-12T20:12:21.291Z,64.73
2024-03-12T20:14:53.669Z,59.93
2024-03-12T20:17:27.887Z,50.23
2024-03-12T20:20:17.760Z,47.87
2024-03-12T20:23:16.451Z,47.87
2024-03-12T20:25:50.773Z,43.47
2024-03-12T20:28:29.513Z,58.27
2024-03-12T20:31:09.974Z,57.10
2024-03-12T20:33:40.332Z,49.83
2024-03-12T20:36:15.719Z,48.57
2024-03-12T20:38:48.504Z,43.77
2024-03-12T20:41:22.035Z,44.23
2024-03-12T20:44:08.599Z,46.43
2024-03-12T20:46:45.374Z,47.33
2024-03-12T20:49:17.757Z,53.80
2024-03-12T20:51:53.431Z,46.17
2024-03-12T20:54:24.961Z,42.97
2024-03-12T20:56:57.440Z,45.50
2024-03-12T20:59:35.643Z,46.80
2024-03-12T21:02:16.258Z,48.07
2024-03-12T21:04:47.752Z,50.67
2024-03-12T21:07:20.682Z,48.03
2024-03-12T21:10:01.242Z,43.63
2024-03-12T21:12:33.360Z,40.83
2024-03-12T21:18:01.784Z,41.80
2024-03-12T21:20:34.289Z,45.43
2024-03-12T21:23:05.831Z,43.57
2024-03-12T21:25:36.120Z,42.47
2024-03-12T21:28:07.542Z,40.83
2024-03-12T21:30:41.419Z,41.57
2024-03-12T21:33:17.405Z,40.73
2024-03-12T21:35:47.380Z,44.93
2024-03-12T21:38:17.276Z,40.37
2024-03-12T21:40:47.797Z,43.87
2024-03-12T21:43:18.038Z,46.07
2024-03-12T21:45:48.647Z,42.10
2024-03-12T21:48:22.197Z,43.10
2024-03-12T21:50:52.557Z,48.27
2024-03-12T21:53:23.087Z,45.57
2024-03-12T21:55:53.512Z,47.07
2024-03-12T21:58:24.017Z,48.93
2024-03-12T22:00:55.556Z,50.63
2024-03-12T22:03:27.145Z,66.83
2024-03-12T22:05:57.264Z,69.87
2024-03-12T22:08:27.490Z,69.60
2024-03-12T22:10:58.734Z,77.63
2024-03-12T22:13:36.196Z,70.73
2024-03-12T22:16:08.253Z,67.53
2024-03-12T22:18:40.074Z,70.53
2024-03-12T22:21:11.494Z,64.63
2024-03-12T22:23:42.534Z,70.77
2024-03-12T22:26:15.344Z,62.73
2024-03-12T22:28:46.365Z,71.17
2024-03-12T22:31:17.651Z,65.30
2024-03-12T22:33:50.900Z,69.73
2024-03-12T22:36:21.938Z,65.83
2024-03-12T22:38:54.508Z,61.87
2024-03-12T22:41:24.529Z,63.20
2024-03-12T22:43:54.848Z,60.43
2024-03-12T22:46:24.820Z,57.93
2024-03-12T22:48:56.857Z,57.83
2024-03-12T22:51:26.849Z,55.40
2024-03-12T22:53:57.603Z,54.20
2024-03-12T22:56:28.546Z,53.00
2024-03-12T22:58:58.955Z,51.50
2024-03-12T23:01:30.264Z,48.97
2024-03-12T23:04:03.020Z,50.57
2024-03-12T23:06:33.352Z,47.80
2024-03-12T23:09:05.981Z,48.20
2024-03-12T23:11:36.132Z,48.40
2024-03-12T23:14:07.670Z,47.83
2024-03-12T23:16:37.881Z,44.83
2024-03-12T23:19:11.050Z,45.33
2024-03-12T23:21:41.097Z,45.33
2024-03-12T23:24:15.131Z,45.70
2024-03-12T23:26:45.226Z,47.30
2024-03-12T23:29:15.942Z,44.53
2024-03-12T23:31:46.460Z,95.53
2024-03-12T23:34:17.750Z,61.40
2024-03-12T23:36:47.751Z,52.63
2024-03-12T23:39:19.082Z,51.13
2024-03-12T23:41:48.790Z,48.27
2024-03-12T23:44:18.507Z,48.77
2024-03-12T23:46:48.412Z,46.03
2024-03-12T23:49:20.161Z,49.97
2024-03-12T23:51:50.829Z,49.70
2024-03-12T23:54:20.516Z,48.73
2024-03-12T23:56:52.981Z,46.47
2024-03-12T23:59:22.698Z,45.23
